Time;durP1;ratioP1;P1;durP2;ratioP2;P2;SDS_P1;SDS_P2;PMS_P1;PMS_P2;Temp;Humidity;BMP_temperature;BMP_pressure;BME280_temperature;BME280_humidity;BME280_pressure;Samples;Min_cycle;Max_cycle;Signal;HPM_P1;HPM_P2
2023/06/15 00:00:24;;;;;;;3.55;2.20;;;;;;;19.24;87.54;102015.78;5024072;28;20067;-64
2023/06/15 00:02:50;;;;;;;5.50;2.72;;;;;;;19.11;89.69;102008.38;5024466;28;20075;-65
2023/06/15 00:05:16;;;;;;;2.53;2.00;;;;;;;19.12;89.87;102012.81;5040437;28;20086;-64
2023/06/15 00:07:42;;;;;;;3.72;2.00;;;;;;;19.18;90.25;102011.63;5030264;28;20040;-65
2023/06/15 00:10:08;;;;;;;4.80;2.25;;;;;;;19.17;90.77;102013.41;5019336;28;20026;-65
2023/06/15 00:12:34;;;;;;;4.32;2.40;;;;;;;19.16;91.01;102024.19;5023850;28;20037;-65
2023/06/15 00:14:59;;;;;;;3.65;2.50;;;;;;;19.11;92.21;102018.22;5022862;28;20065;-65
2023/06/15 00:17:25;;;;;;;5.28;2.40;;;;;;;19.09;91.82;102018.31;5025248;28;20032;-66
2023/06/15 00:19:50;;;;;;;3.58;2.80;;;;;;;19.16;91.76;102017.03;5044068;28;20033;-66
2023/06/15 00:22:15;;;;;;;4.20;2.55;;;;;;;18.99;93.10;102017.03;5024804;28;20029;-64
2023/06/15 00:24:42;;;;;;;3.33;2.33;;;;;;;19.12;91.62;102012.81;5024620;28;21259;-64
2023/06/15 00:27:08;;;;;;;3.88;2.15;;;;;;;19.15;91.51;102017.97;5023907;28;20026;-65
2023/06/15 00:29:34;;;;;;;3.42;2.50;;;;;;;19.14;91.38;102021.59;5024548;28;20028;-65
2023/06/15 00:32:00;;;;;;;4.18;2.55;;;;;;;19.11;91.75;102024.41;5024482;28;20474;-65
2023/06/15 00:34:25;;;;;;;3.20;2.58;;;;;;;19.05;91.91;102024.69;5023194;28;20037;-66
2023/06/15 00:36:50;;;;;;;3.65;2.17;;;;;;;19.04;93.12;102026.53;5023740;28;20030;-66
2023/06/15 00:39:16;;;;;;;3.90;2.72;;;;;;;18.98;93.62;102028.63;5024205;28;20026;-65
2023/06/15 00:41:42;;;;;;;6.88;3.17;;;;;;;18.93;94.90;102019.03;5024956;28;20043;-64
2023/06/15 00:44:08;;;;;;;5.72;2.90;;;;;;;18.86;95.19;102020.31;5024642;28;20104;-65
2023/06/15 00:46:34;;;;;;;2.95;2.70;;;;;;;18.80;95.96;102020.59;5024349;28;20048;-64
2023/06/15 00:48:59;;;;;;;4.25;2.53;;;;;;;18.84;95.71;102018.66;5087990;28;20034;-64
2023/06/15 00:51:25;;;;;;;4.60;2.83;;;;;;;18.80;96.46;102023.28;5044165;28;20033;-65
2023/06/15 00:53:50;;;;;;;3.35;2.72;;;;;;;18.86;96.00;102033.66;5024983;28;20029;-66
2023/06/15 00:56:17;;;;;;;4.68;2.97;;;;;;;18.84;96.71;102029.34;5025111;28;20026;-65
2023/06/15 00:58:43;;;;;;;11.63;3.00;;;;;;;18.83;96.40;102028.47;5092939;28;20037;-66
2023/06/15 01:01:08;;;;;;;4.00;3.13;;;;;;;18.83;96.50;102025.78;5025252;28;20038;-65
2023/06/15 01:03:35;;;;;;;7.50;3.08;;;;;;;18.78;97.45;102025.19;5025307;28;20165;-65
2023/06/15 01:06:01;;;;;;;6.25;3.35;;;;;;;18.78;97.54;102031.38;5024057;28;20112;-65
2023/06/15 01:08:27;;;;;;;5.95;3.63;;;;;;;18.71;98.20;102031.75;5094091;28;20033;-65
2023/06/15 01:10:53;;;;;;;4.63;3.05;;;;;;;18.66;98.80;102030.16;5025820;28;20385;-65
2023/06/15 01:13:20;;;;;;;4.88;3.38;;;;;;;18.67;98.78;102034.56;5025507;28;20037;-65
2023/06/15 01:15:46;;;;;;;4.55;3.55;;;;;;;18.65;99.13;102028.44;5026274;28;20033;-65
2023/06/15 01:18:20;;;;;;;4.82;3.60;;;;;;;18.67;99.34;102028.38;5093157;28;20025;-65
2023/06/15 01:20:48;;;;;;;4.57;3.03;;;;;;;18.64;99.32;102032.06;5025856;28;20131;-64
2023/06/15 01:23:40;;;;;;;4.63;3.30;;;;;;;18.63;99.85;102027.66;5092519;28;20112;-64
2023/06/15 01:26:07;;;;;;;5.70;3.35;;;;;;;18.58;99.81;102032.38;5025228;28;20200;-64
2023/06/15 01:28:35;;;;;;;6.07;3.38;;;;;;;18.46;100.00;102033.81;5161756;22;20599;-63
2023/06/15 01:31:01;;;;;;;11.55;3.70;;;;;;;18.49;100.00;102031.00;5047461;28;20476;-65
2023/06/15 01:33:27;;;;;;;8.85;3.60;;;;;;;18.42;100.00;102030.44;5047045;28;20021;-65
2023/06/15 01:35:53;;;;;;;9.90;3.90;;;;;;;18.46;100.00;102024.94;5048421;28;20068;-63
2023/06/15 01:38:24;;;;;;;4.80;3.47;;;;;;;18.37;100.00;102032.47;5048260;28;20028;-64
2023/06/15 01:40:51;;;;;;;6.03;3.53;;;;;;;18.30;100.00;102023.00;5048433;28;20032;-64
2023/06/15 01:43:25;;;;;;;6.63;3.70;;;;;;;18.33;100.00;102028.19;5030734;28;20151;-63
2023/06/15 01:45:51;;;;;;;7.25;3.80;;;;;;;18.32;100.00;102026.47;5030635;28;20124;-65
2023/06/15 01:48:17;;;;;;;5.63;3.33;;;;;;;18.35;100.00;102026.34;5045981;28;20131;-67
2023/06/15 01:50:43;;;;;;;7.65;4.32;;;;;;;18.28;100.00;102024.91;5027739;28;20124;-64
2023/06/15 01:53:08;;;;;;;12.15;3.80;;;;;;;18.22;100.00;102028.72;5030232;28;20384;-65
2023/06/15 01:55:34;;;;;;;4.22;3.80;;;;;;;18.15;100.00;102035.28;5030566;28;20083;-64
2023/06/15 01:58:00;;;;;;;7.43;3.60;;;;;;;18.24;100.00;102031.31;5030619;28;20021;-64
2023/06/15 02:00:25;;;;;;;6.97;3.95;;;;;;;18.21;100.00;102021.66;5048662;28;20033;-64
2023/06/15 02:02:51;;;;;;;4.35;3.70;;;;;;;18.17;100.00;102028.06;5048191;28;20017;-64
2023/06/15 02:05:17;;;;;;;7.28;3.83;;;;;;;18.10;100.00;102027.50;5047593;28;20374;-65
2023/06/15 02:07:43;;;;;;;4.53;3.63;;;;;;;18.12;100.00;102030.94;5048338;28;20033;-65
2023/06/15 02:10:08;;;;;;;5.00;3.85;;;;;;;18.18;100.00;102030.66;5047428;28;20069;-63
2023/06/15 02:12:34;;;;;;;8.27;3.83;;;;;;;18.12;100.00;102035.44;5048278;28;20029;-64
2023/06/15 02:15:02;;;;;;;10.63;3.88;;;;;;;18.12;100.00;102033.63;5048281;28;20025;-64
2023/06/15 02:17:31;;;;;;;10.15;3.92;;;;;;;18.11;100.00;102034.56;5055349;28;20169;-63
2023/06/15 02:19:56;;;;;;;;;;;;;;;18.22;100.00;102041.19;5071685;28;20028;-63
2023/06/15 02:22:22;;;;;;;8.98;3.65;;;;;;;18.15;100.00;102043.31;5072198;28;20328;-65
2023/06/15 02:24:47;;;;;;;13.80;4.03;;;;;;;18.05;100.00;102040.16;5071974;28;20037;-64
2023/06/15 02:27:13;;;;;;;17.98;3.92;;;;;;;17.98;100.00;102046.72;5071739;28;20048;-64
2023/06/15 02:29:38;;;;;;;5.45;4.05;;;;;;;17.98;100.00;102039.59;5071310;28;20061;-65
2023/06/15 02:32:04;;;;;;;5.22;4.13;;;;;;;17.94;100.00;102048.63;5072064;28;20165;-64
2023/06/15 02:34:30;;;;;;;7.35;4.22;;;;;;;18.00;100.00;102047.50;5071363;28;20132;-64
2023/06/15 02:36:56;;;;;;;5.93;4.03;;;;;;;17.94;100.00;102043.31;5071773;28;20032;-64
2023/06/15 02:39:21;;;;;;;6.05;3.88;;;;;;;17.98;100.00;102047.59;5071504;28;20045;-64
2023/06/15 02:41:47;;;;;;;7.53;4.60;;;;;;;17.94;100.00;102044.19;5071702;28;20028;-63
2023/06/15 02:44:14;;;;;;;6.68;4.28;;;;;;;17.92;100.00;102051.41;5071348;28;20369;-62
2023/06/15 02:46:40;;;;;;;10.35;4.20;;;;;;;17.92;100.00;102050.53;5071325;28;20024;-64
2023/06/15 02:49:05;;;;;;;6.20;3.63;;;;;;;17.91;100.00;102044.31;5070498;28;20017;-64
2023/06/15 02:51:31;;;;;;;6.88;4.32;;;;;;;17.90;100.00;102044.38;5071632;28;20023;-63
2023/06/15 02:53:56;;;;;;;9.52;4.57;;;;;;;17.88;100.00;102048.94;5070884;28;20107;-62
2023/06/15 02:56:21;;;;;;;5.13;3.90;;;;;;;17.92;100.00;102040.75;5071651;28;20062;-65
2023/06/15 02:58:57;;;;;;;11.43;4.40;;;;;;;17.84;100.00;102047.31;5071480;28;20116;-63
2023/06/15 03:01:23;;;;;;;12.32;4.85;;;;;;;17.75;100.00;102048.63;5071522;28;20078;-64
2023/06/15 03:03:49;;;;;;;8.30;4.90;;;;;;;17.76;100.00;102051.22;5070304;28;20043;-63
2023/06/15 03:06:14;;;;;;;7.85;4.50;;;;;;;17.75;100.00;102046.81;5053117;28;20070;-63
2023/06/15 03:08:40;;;;;;;9.93;4.55;;;;;;;17.73;100.00;102047.84;5053074;28;20044;-64
2023/06/15 03:11:06;;;;;;;10.90;4.30;;;;;;;17.80;100.00;102042.16;5071149;28;20103;-64
2023/06/15 03:13:31;;;;;;;5.90;4.20;;;;;;;17.77;100.00;102042.31;5071663;28;20131;-64
2023/06/15 03:16:00;;;;;;;6.60;4.00;;;;;;;17.79;100.00;102052.91;5071047;28;20435;-64
2023/06/15 03:18:26;;;;;;;5.45;4.22;;;;;;;17.75;100.00;102049.50;5070655;28;20021;-64
2023/06/15 03:20:52;;;;;;;6.93;4.57;;;;;;;17.74;100.00;102044.22;5070666;28;20039;-64
2023/06/15 03:23:20;;;;;;;10.13;4.68;;;;;;;17.72;100.00;102054.06;5070669;28;20026;-63
2023/06/15 03:25:46;;;;;;;8.50;4.67;;;;;;;17.72;100.00;102048.75;5070966;28;20066;-63
2023/06/15 03:28:11;;;;;;;8.40;4.47;;;;;;;17.67;100.00;102056.97;5069718;28;20020;-64
2023/06/15 03:30:40;;;;;;;11.52;5.07;;;;;;;17.66;100.00;102055.22;5070799;28;20097;-64
2023/06/15 03:33:08;;;;;;;4.63;4.10;;;;;;;17.64;100.00;102052.63;5069801;28;20060;-65
2023/06/15 03:35:34;;;;;;;6.47;4.03;;;;;;;17.66;100.00;102053.44;5071082;28;20024;-65
2023/06/15 03:38:00;;;;;;;12.02;4.50;;;;;;;17.63;100.00;102047.38;5070249;28;20073;-63
2023/06/15 03:40:25;;;;;;;6.35;4.55;;;;;;;17.60;100.00;102055.50;5070643;28;20032;-64
2023/06/15 03:42:50;;;;;;;7.90;4.47;;;;;;;17.66;100.00;102061.44;5070383;28;20103;-65
2023/06/15 03:45:17;;;;;;;6.93;4.40;;;;;;;17.65;100.00;102059.72;5070417;28;20025;-64
2023/06/15 03:47:45;;;;;;;4.63;4.07;;;;;;;17.66;100.00;102061.44;5070382;28;20607;-63
2023/06/15 03:50:11;;;;;;;9.90;4.75;;;;;;;17.60;100.00;102058.16;5069507;28;20028;-63
2023/06/15 03:52:36;;;;;;;13.00;4.43;;;;;;;17.64;100.00;102071.28;5070866;28;20020;-64
2023/06/15 03:55:02;;;;;;;7.47;4.22;;;;;;;17.59;100.00;102059.97;5070358;28;20525;-63
2023/06/15 03:57:27;;;;;;;5.15;4.38;;;;;;;17.66;100.00;102055.22;5070263;28;20035;-64
2023/06/15 03:59:52;;;;;;;6.18;4.88;;;;;;;17.59;100.00;102067.09;5070204;28;20495;-63
2023/06/15 04:02:21;;;;;;;7.40;4.28;;;;;;;17.66;100.00;102058.78;5069884;28;20020;-64
2023/06/15 04:04:46;;;;;;;7.05;4.72;;;;;;;17.66;100.00;102065.88;5059442;28;20057;-65
2023/06/15 04:07:11;;;;;;;10.43;4.70;;;;;;;17.70;100.00;102061.31;5042747;28;20060;-64
2023/06/15 04:09:37;;;;;;;6.47;4.70;;;;;;;17.70;100.00;102061.31;5050578;28;20029;-63
2023/06/15 04:12:02;;;;;;;6.95;4.68;;;;;;;17.73;100.00;102063.81;5049628;28;20036;-62
2023/06/15 04:14:28;;;;;;;10.77;4.47;;;;;;;17.73;100.00;102062.00;5049712;28;20525;-64
2023/06/15 04:16:53;;;;;;;10.32;4.97;;;;;;;17.75;100.00;102061.94;5049561;28;20075;-64
2023/06/15 04:19:22;;;;;;;7.35;4.93;;;;;;;17.72;100.00;102064.75;5048861;28;20161;-64
2023/06/15 04:21:48;;;;;;;10.38;5.13;;;;;;;17.65;100.00;102067.72;5031868;28;20059;-64
2023/06/15 04:24:14;;;;;;;10.50;4.97;;;;;;;17.74;100.00;102068.22;5049492;28;20381;-63
2023/06/15 04:26:41;;;;;;;9.80;4.90;;;;;;;17.78;100.00;102072.47;5032297;28;20057;-67
2023/06/15 04:29:07;;;;;;;7.28;4.88;;;;;;;17.91;100.00;102075.47;5045964;28;20066;-66
2023/06/15 04:31:33;;;;;;;8.32;5.00;;;;;;;18.00;100.00;102074.19;5049277;28;20107;-67
2023/06/15 04:34:00;;;;;;;8.70;4.82;;;;;;;18.10;100.00;102075.50;5016016;28;20080;-67
2023/06/15 04:36:27;;;;;;;6.20;4.43;;;;;;;18.23;100.00;102074.91;5048787;28;20465;-67
2023/06/15 04:38:52;;;;;;;8.55;5.05;;;;;;;18.24;100.00;102079.34;5048690;28;20048;-67
2023/06/15 04:41:22;;;;;;;8.27;5.30;;;;;;;18.13;100.00;102083.38;5048106;28;20072;-66
2023/06/15 04:43:48;;;;;;;6.78;4.63;;;;;;;18.40;100.00;102080.34;5048785;28;20113;-66
2023/06/15 04:46:17;;;;;;;9.25;5.05;;;;;;;18.46;100.00;102080.97;5048548;28;20411;-66
2023/06/15 04:48:43;;;;;;;10.18;5.00;;;;;;;18.38;100.00;102081.34;5047805;28;20028;-66
2023/06/15 04:51:10;;;;;;;11.60;4.60;;;;;;;18.46;100.00;102083.66;5047813;28;20086;-67
2023/06/15 04:53:35;;;;;;;6.88;4.03;;;;;;;18.55;100.00;102093.91;5048823;28;20036;-66
2023/06/15 04:56:01;;;;;;;12.73;4.88;;;;;;;18.61;100.00;102095.41;5047968;28;20074;-66
2023/06/15 04:58:26;;;;;;;9.45;4.65;;;;;;;18.65;100.00;102092.50;5045859;28;20056;-66
2023/06/15 05:00:52;;;;;;;10.43;4.80;;;;;;;18.58;100.00;102100.88;5048324;28;20075;-67
2023/06/15 05:03:18;;;;;;;8.93;4.53;;;;;;;18.65;100.00;102095.19;5029451;28;20046;-67
2023/06/15 05:05:43;;;;;;;12.90;5.30;;;;;;;18.68;100.00;102088.81;5048116;28;20428;-65
2023/06/15 05:08:08;;;;;;;7.72;4.65;;;;;;;18.84;100.00;102099.59;5044609;28;20207;-65
2023/06/15 05:10:34;;;;;;;13.52;4.57;;;;;;;18.81;100.00;102103.31;5044894;28;20115;-64
2023/06/15 05:12:59;;;;;;;7.43;5.18;;;;;;;18.63;100.00;102102.38;5042962;28;20799;-66
2023/06/15 05:15:25;;;;;;;6.00;4.90;;;;;;;18.78;100.00;102103.44;5039549;28;20116;-67
2023/06/15 05:17:50;;;;;;;8.68;4.75;;;;;;;18.91;100.00;102098.34;5046066;28;20071;-65
2023/06/15 05:20:15;;;;;;;8.85;4.40;;;;;;;19.03;100.00;102101.38;5047271;28;20484;-68
2023/06/15 05:22:41;;;;;;;9.82;5.25;;;;;;;18.92;100.00;102105.44;5040868;28;20022;-67
2023/06/15 05:25:06;;;;;;;12.50;4.55;;;;;;;19.14;100.00;102093.72;5029923;28;20029;-66
2023/06/15 05:27:35;;;;;;;10.27;5.07;;;;;;;19.18;100.00;102094.44;5044340;28;20035;-69
2023/06/15 05:30:01;;;;;;;8.63;4.80;;;;;;;19.26;100.00;102091.38;5046046;28;20071;-63
2023/06/15 05:32:26;;;;;;;7.00;5.10;;;;;;;19.45;100.00;102091.28;5046902;28;20028;-65
2023/06/15 05:34:51;;;;;;;11.70;4.38;;;;;;;19.51;100.00;102095.44;5046979;28;20021;-65
2023/06/15 05:37:17;;;;;;;10.43;4.90;;;;;;;19.61;100.00;102096.69;5047300;28;20125;-69
2023/06/15 05:39:42;;;;;;;7.07;4.50;;;;;;;19.62;100.00;102093.06;5048394;28;20053;-68
2023/06/15 05:42:08;;;;;;;11.27;4.72;;;;;;;19.79;100.00;102100.22;5046744;28;20029;-61
2023/06/15 05:44:33;;;;;;;8.82;4.22;;;;;;;19.74;100.00;102096.06;5046241;28;20013;-61
2023/06/15 05:46:59;;;;;;;5.82;4.05;;;;;;;20.00;100.00;102099.13;5047163;28;20025;-62
2023/06/15 05:49:24;;;;;;;10.57;4.47;;;;;;;20.06;100.00;102096.16;5047136;28;20061;-60
2023/06/15 05:51:50;;;;;;;7.88;4.80;;;;;;;20.08;100.00;102099.63;5049929;28;20064;-65
2023/06/15 05:54:15;;;;;;;8.35;4.28;;;;;;;20.22;100.00;102100.69;5051672;28;20107;-61
2023/06/15 05:56:40;;;;;;;5.45;4.32;;;;;;;20.23;100.00;102103.28;5040638;28;20120;-66
2023/06/15 05:59:06;;;;;;;9.63;5.03;;;;;;;20.24;100.00;102109.47;5032912;28;20014;-62
2023/06/15 06:01:31;;;;;;;5.20;3.97;;;;;;;20.23;100.00;102105.94;5042756;28;20029;-65
2023/06/15 06:03:57;;;;;;;8.85;5.00;;;;;;;20.31;100.00;102110.84;5051154;28;20262;-64
2023/06/15 06:06:22;;;;;;;13.85;4.97;;;;;;;20.15;100.00;102106.38;5051765;28;20032;-62
2023/06/15 06:08:47;;;;;;;11.38;5.40;;;;;;;20.38;100.00;102109.56;5050700;28;20079;-61
2023/06/15 06:11:13;;;;;;;9.90;4.47;;;;;;;20.53;100.00;102112.34;5051123;28;20040;-64
2023/06/15 06:13:38;;;;;;;14.50;5.13;;;;;;;20.60;100.00;102108.38;5050595;28;20392;-63
2023/06/15 06:16:04;;;;;;;6.53;4.50;;;;;;;20.70;100.00;102120.28;5051111;28;20107;-63
2023/06/15 06:18:29;;;;;;;6.72;4.18;;;;;;;20.76;100.00;102110.16;5050528;28;20035;-63
2023/06/15 06:20:54;;;;;;;11.88;5.32;;;;;;;20.84;100.00;102108.75;5051116;28;20027;-65
2023/06/15 06:23:20;;;;;;;7.55;4.43;;;;;;;20.97;99.52;102108.09;5050106;28;20064;-63
2023/06/15 06:25:45;;;;;;;9.20;5.13;;;;;;;21.04;98.74;102114.81;5051136;28;20060;-62
2023/06/15 06:28:11;;;;;;;10.65;4.72;;;;;;;21.01;98.05;102109.63;5050261;28;20025;-63
2023/06/15 06:30:38;;;;;;;7.30;4.65;;;;;;;21.06;99.18;102112.06;5047503;28;20044;-62
2023/06/15 06:33:04;;;;;;;7.15;4.72;;;;;;;21.06;99.07;102117.41;5037579;28;20034;-64
2023/06/15 06:35:29;;;;;;;10.13;5.03;;;;;;;20.99;98.92;102106.19;5039687;28;20516;-61
2023/06/15 06:37:55;;;;;;;9.35;4.95;;;;;;;21.08;98.92;102115.50;5036958;28;20121;-62
2023/06/15 06:40:20;;;;;;;9.55;5.00;;;;;;;21.22;97.59;102112.00;5040728;28;20030;-63
2023/06/15 06:42:46;;;;;;;9.23;5.40;;;;;;;21.29;97.83;102109.84;5040064;28;20048;-63
2023/06/15 06:45:11;;;;;;;7.60;4.53;;;;;;;21.40;97.49;102110.03;5037163;28;20025;-63
2023/06/15 06:47:36;;;;;;;11.30;4.32;;;;;;;21.46;97.60;102104.31;5038035;28;20373;-65
2023/06/15 06:50:01;;;;;;;6.35;4.50;;;;;;;21.88;94.61;102110.81;5037780;28;20543;-64
2023/06/15 06:52:27;;;;;;;7.28;4.72;;;;;;;22.03;94.13;102101.81;5042114;28;20036;-66
2023/06/15 06:54:52;;;;;;;7.18;4.55;;;;;;;22.21;93.18;102104.28;5042069;28;20024;-66
2023/06/15 06:57:18;;;;;;;7.25;4.25;;;;;;;22.27;92.75;102114.63;5042254;28;20029;-66
2023/06/15 06:59:43;;;;;;;8.73;4.40;;;;;;;22.27;91.35;102111.09;5040100;28;20029;-67
2023/06/15 07:02:08;;;;;;;10.45;4.30;;;;;;;22.29;90.59;102101.97;5035270;28;20461;-66
2023/06/15 07:04:34;;;;;;;5.95;4.18;;;;;;;22.34;91.61;102107.06;5043665;28;20025;-66
2023/06/15 07:07:00;;;;;;;10.98;4.88;;;;;;;22.40;91.72;102109.34;5038742;28;20496;-62
2023/06/15 07:09:25;;;;;;;5.80;4.20;;;;;;;22.51;90.87;102105.94;5036953;28;20393;-62
2023/06/15 07:11:50;;;;;;;12.05;3.97;;;;;;;22.69;90.23;102103.91;5042300;28;20029;-62
2023/06/15 07:14:15;;;;;;;7.30;4.10;;;;;;;23.00;87.53;102111.78;5050837;28;20029;-62
2023/06/15 07:16:41;;;;;;;7.00;4.00;;;;;;;23.05;87.58;102112.31;5050118;28;20025;-59
2023/06/15 07:19:06;;;;;;;7.90;3.97;;;;;;;23.04;87.27;102112.41;5049228;28;20036;-58
2023/06/15 07:21:31;;;;;;;8.13;4.40;;;;;;;23.10;86.91;102109.31;5050470;28;20032;-60
2023/06/15 07:23:57;;;;;;;9.23;4.35;;;;;;;23.08;87.12;102113.91;5046020;28;20040;-60
2023/06/15 07:26:22;;;;;;;9.10;4.60;;;;;;;23.00;87.38;102117.16;5032139;28;20025;-61
2023/06/15 07:28:47;;;;;;;9.00;4.00;;;;;;;23.07;86.94;102117.59;5029223;28;20038;-61
2023/06/15 07:31:13;;;;;;;6.78;4.00;;;;;;;23.16;85.60;102118.78;5030553;28;20057;-61
2023/06/15 07:33:38;;;;;;;5.80;4.40;;;;;;;23.27;84.75;102116.22;5039566;28;20032;-60
2023/06/15 07:36:04;;;;;;;7.20;4.40;;;;;;;23.16;84.35;102116.97;5049719;28;20055;-60
2023/06/15 07:38:30;;;;;;;5.47;4.28;;;;;;;23.16;85.13;102111.59;5048104;28;20063;-60
2023/06/15 07:40:56;;;;;;;8.38;4.00;;;;;;;23.17;84.99;102113.31;5047907;28;20029;-61
2023/06/15 07:43:21;;;;;;;7.82;3.92;;;;;;;23.37;83.29;102121.88;5048375;28;20028;-59
2023/06/15 07:45:46;;;;;;;10.02;4.28;;;;;;;23.43;83.09;102125.97;5046979;28;20021;-62
2023/06/15 07:48:13;;;;;;;4.85;4.35;;;;;;;23.33;80.71;102117.66;5047883;28;20108;-59
2023/06/15 07:50:38;;;;;;;14.10;4.50;;;;;;;23.35;80.25;102119.25;5047831;28;20295;-59
2023/06/15 07:53:03;;;;;;;8.80;4.57;;;;;;;23.57;79.83;102115.13;5047286;28;20090;-60
2023/06/15 07:55:28;;;;;;;8.32;4.20;;;;;;;23.70;79.02;102115.13;5048166;28;20032;-59
2023/06/15 07:57:54;;;;;;;6.13;4.13;;;;;;;23.93;78.44;102111.78;5048167;28;20028;-61
2023/06/15 08:00:20;;;;;;;8.07;4.80;;;;;;;23.87;79.32;102118.44;5049362;28;20021;-60
2023/06/15 08:02:45;;;;;;;7.75;4.15;;;;;;;24.01;79.07;102116.59;5049415;28;20028;-61
2023/06/15 08:05:11;;;;;;;7.55;4.10;;;;;;;24.12;77.46;102124.78;5035172;28;20486;-60
2023/06/15 08:07:36;;;;;;;11.48;3.67;;;;;;;24.20;75.50;102108.97;5029823;28;20462;-61
2023/06/15 08:10:02;;;;;;;10.18;3.70;;;;;;;23.98;70.12;102110.47;5028354;28;20524;-59
2023/06/15 08:12:27;;;;;;;8.02;3.85;;;;;;;24.11;68.87;102118.53;5029230;28;20032;-61
2023/06/15 08:14:53;;;;;;;10.15;4.45;;;;;;;24.28;70.58;102118.31;5048364;28;20108;-62
2023/06/15 08:17:18;;;;;;;7.57;3.28;;;;;;;24.50;69.68;102116.75;5048563;28;20496;-61
2023/06/15 08:19:43;;;;;;;5.20;3.55;;;;;;;24.66;68.00;102111.97;5049444;28;20063;-60
2023/06/15 08:22:09;;;;;;;9.55;3.05;;;;;;;24.43;60.81;102116.31;5047715;28;20037;-60
2023/06/15 08:24:34;;;;;;;7.80;2.83;;;;;;;24.58;62.13;102117.91;5048037;28;20033;-62
2023/06/15 08:27:00;;;;;;;5.28;3.67;;;;;;;24.67;68.21;102127.13;5047679;28;20078;-60
2023/06/15 08:29:25;;;;;;;7.18;4.40;;;;;;;24.57;70.75;102123.41;5048656;28;20037;-59
2023/06/15 08:31:51;;;;;;;5.97;3.50;;;;;;;24.59;68.57;102126.84;5048813;28;20039;-60
2023/06/15 08:34:17;;;;;;;6.80;3.85;;;;;;;24.77;66.45;102130.00;5048684;28;20517;-61
2023/06/15 08:36:42;;;;;;;9.30;3.40;;;;;;;24.60;65.99;102123.19;5031674;28;20033;-63
2023/06/15 08:39:08;;;;;;;7.53;3.40;;;;;;;24.82;65.38;102121.56;5048875;28;20025;-62
2023/06/15 08:41:36;;;;;;;6.47;3.70;;;;;;;24.99;65.15;102115.78;5048604;28;20377;-62
2023/06/15 08:44:03;;;;;;;14.38;4.00;;;;;;;24.82;66.71;102116.19;5048385;28;20108;-62
2023/06/15 08:46:29;;;;;;;12.63;3.78;;;;;;;24.89;66.88;102122.03;5048500;28;20057;-61
2023/06/15 08:48:55;;;;;;;8.13;3.42;;;;;;;24.81;66.49;102125.25;5047967;28;20053;-61
2023/06/15 08:51:21;;;;;;;6.55;3.72;;;;;;;24.79;68.11;102117.28;5048369;28;20104;-62
2023/06/15 08:53:47;;;;;;;7.07;3.85;;;;;;;25.12;66.64;102114.88;5048993;28;20128;-61
2023/06/15 08:56:13;;;;;;;13.13;3.72;;;;;;;25.40;65.02;102120.81;5039274;28;20391;-62
2023/06/15 08:58:39;;;;;;;8.48;3.92;;;;;;;25.38;65.05;102125.50;5037112;28;20021;-61
2023/06/15 09:01:06;;;;;;;10.25;3.28;;;;;;;25.53;63.08;102125.28;5038139;28;20452;-62
2023/06/15 09:03:33;;;;;;;8.43;3.13;;;;;;;25.47;63.72;102122.06;5038481;28;20300;-62
2023/06/15 09:05:58;;;;;;;6.72;3.65;;;;;;;25.48;61.52;102125.63;5028372;28;20022;-62
2023/06/15 09:08:24;;;;;;;9.50;4.00;;;;;;;25.21;61.97;102124.97;5029015;28;20088;-62
2023/06/15 09:10:49;;;;;;;11.55;4.32;;;;;;;25.10;63.86;102127.59;5029132;28;20385;-61
2023/06/15 09:13:18;;;;;;;8.63;3.75;;;;;;;25.32;62.30;102123.28;5028246;28;20523;-61
2023/06/15 09:15:50;;;;;;;;;;;;;;;25.16;60.73;102119.03;5029252;28;20030;-64
2023/06/15 09:18:15;;;;;;;11.30;3.63;;;;;;;25.17;61.67;102120.78;5036737;28;19912;-62
2023/06/15 09:20:41;;;;;;;4.45;3.30;;;;;;;25.34;60.53;102124.00;5020906;28;20108;-64
2023/06/15 09:23:10;;;;;;;6.55;3.17;;;;;;;25.40;58.03;102118.13;5018509;28;20017;-61
2023/06/15 09:25:36;;;;;;;5.10;3.35;;;;;;;25.21;58.52;102121.38;5033910;28;20374;-60
2023/06/15 09:28:06;;;;;;;5.13;3.05;;;;;;;25.66;58.44;102125.19;5036785;28;20697;-61
2023/06/15 09:30:36;;;;;;;11.10;3.17;;;;;;;26.06;55.45;102121.16;5037575;28;20052;-61
2023/06/15 09:33:11;;;;;;;8.13;2.97;;;;;;;26.29;55.47;102126.53;5038155;28;20017;-62
2023/06/15 09:35:36;;;;;;;5.90;2.90;;;;;;;26.46;55.46;102117.94;5038924;28;20119;-62
2023/06/15 09:38:02;;;;;;;8.75;3.40;;;;;;;26.15;54.24;102120.41;5036439;28;20050;-62
2023/06/15 09:40:30;;;;;;;4.93;2.80;;;;;;;26.08;55.78;102121.91;5038711;28;20457;-62
2023/06/15 09:42:56;;;;;;;7.35;2.60;;;;;;;26.29;54.56;102113.03;5038679;28;20374;-62
2023/06/15 09:45:22;;;;;;;6.85;3.92;;;;;;;26.44;54.59;102108.25;5018971;28;20021;-62
2023/06/15 09:47:53;;;;;;;4.47;3.03;;;;;;;26.76;53.29;102115.56;5037971;28;20385;-62
2023/06/15 09:50:18;;;;;;;6.72;3.25;;;;;;;26.86;53.86;102115.63;5039442;28;20074;-61
2023/06/15 09:52:48;;;;;;;8.98;3.20;;;;;;;27.00;52.44;102118.03;5021918;28;20018;-62
2023/06/15 09:55:15;;;;;;;5.93;2.85;;;;;;;26.97;50.52;102122.84;5037033;28;20032;-61
2023/06/15 09:57:41;;;;;;;3.85;3.00;;;;;;;27.16;52.19;102118.59;5021112;28;20050;-63
2023/06/15 10:00:08;;;;;;;9.80;3.88;;;;;;;27.10;47.26;102119.97;5036611;28;20100;-61
2023/06/15 10:02:36;;;;;;;3.72;2.60;;;;;;;26.79;43.54;102109.03;5033352;28;20030;-62
2023/06/15 10:05:02;;;;;;;6.13;3.05;;;;;;;26.65;46.76;102113.72;5046901;28;20025;-64
2023/06/15 10:07:28;;;;;;;8.77;2.75;;;;;;;27.17;47.47;102118.47;5047856;28;20039;-63
2023/06/15 10:09:54;;;;;;;8.73;2.90;;;;;;;27.79;45.97;102123.13;5030147;28;20041;-65
2023/06/15 10:12:21;;;;;;;8.02;3.05;;;;;;;27.67;47.19;102114.25;5014011;28;20028;-63
2023/06/15 10:14:54;;;;;;;4.20;2.63;;;;;;;27.78;45.67;102112.44;5046405;28;20025;-64
2023/06/15 10:17:24;;;;;;;6.55;2.97;;;;;;;28.25;46.31;102118.16;5036749;28;20057;-65
2023/06/15 10:19:51;;;;;;;7.50;3.10;;;;;;;28.56;45.47;102116.41;5037716;28;20023;-64
2023/06/15 10:22:18;;;;;;;7.33;2.90;;;;;;;28.22;47.80;102123.88;5021076;28;20025;-63
2023/06/15 10:24:44;;;;;;;5.10;2.63;;;;;;;28.31;46.90;102116.78;5037212;28;20017;-63
2023/06/15 10:27:11;;;;;;;11.85;3.13;;;;;;;28.21;44.58;102116.75;5037278;28;20032;-63
2023/06/15 10:29:57;;;;;;;4.25;2.92;;;;;;;28.19;45.94;102117.84;5035573;28;20037;-64
2023/06/15 10:32:33;;;;;;;6.13;3.20;;;;;;;27.68;46.10;102113.25;5014937;28;20028;-64
2023/06/15 10:35:20;;;;;;;9.20;2.97;;;;;;;27.67;46.72;102111.53;5009899;28;20030;-65
2023/06/15 10:37:54;;;;;;;5.43;2.88;;;;;;;27.82;44.79;102111.16;5029941;28;20022;-64
2023/06/15 10:40:32;;;;;;;10.00;2.90;;;;;;;28.09;41.95;102120.53;5014078;28;20366;-63
2023/06/15 10:43:00;;;;;;;;;;;;;;;28.05;44.56;102114.53;5014541;28;20531;-63
2023/06/15 10:45:32;;;;;;;7.90;2.80;;;;;;;28.37;43.59;102107.25;5031621;28;19908;-63
2023/06/15 10:47:59;;;;;;;8.38;2.97;;;;;;;28.33;43.44;102116.66;5030398;28;20059;-64
2023/06/15 10:50:25;;;;;;;10.77;3.35;;;;;;;28.72;42.76;102110.44;5031709;28;20021;-63
2023/06/15 10:52:51;;;;;;;4.35;3.05;;;;;;;28.71;41.75;102120.41;5031498;28;20060;-66
2023/06/15 10:55:22;;;;;;;7.80;3.20;;;;;;;28.89;44.09;102122.41;5031512;28;20021;-63
2023/06/15 10:57:48;;;;;;;5.70;3.20;;;;;;;28.68;40.77;102109.00;5031710;28;20017;-65
2023/06/15 11:00:23;;;;;;;4.75;2.90;;;;;;;28.88;40.17;102109.84;5031177;28;20436;-65
2023/06/15 11:02:52;;;;;;;3.03;2.80;;;;;;;28.42;43.25;102110.41;5030913;28;20112;-64
2023/06/15 11:05:20;;;;;;;6.95;2.97;;;;;;;28.17;42.80;102112.56;5031751;28;20030;-64
2023/06/15 11:07:47;;;;;;;7.47;2.83;;;;;;;28.64;44.34;102108.41;5031424;28;20022;-63
2023/06/15 11:10:15;;;;;;;9.20;2.70;;;;;;;28.99;41.46;102107.00;5030893;28;20112;-64
2023/06/15 11:12:42;;;;;;;7.63;2.53;;;;;;;28.51;42.09;102109.53;5031225;28;20021;-64
2023/06/15 11:15:11;;;;;;;14.90;2.90;;;;;;;28.24;45.06;102111.00;5031006;28;20616;-63
2023/06/15 11:17:52;;;;;;;5.50;2.80;;;;;;;28.40;43.63;102108.81;5030118;28;20493;-64